sensor_id;sensor_type;location;lat;lon;timestamp;temperature;humidity
20839;DHT22;10580;51.092;6.828;2022-12-13T00:01:23;-1.90;99.90
20839;DHT22;10580;51.092;6.828;2022-12-13T00:03:52;-2.00;99.90
20839;DHT22;10580;51.092;6.828;2022-12-13T00:06:17;-2.00;99.90
20839;DHT22;10580;51.092;6.828;2022-12-13T00:08:43;-2.00;99.90
20839;DHT22;10580;51.092;6.828;2022-12-13T00:11:11;-2.00;99.90
20839;DHT22;10580;51.092;6.828;2022-12-13T00:13:38;-2.00;99.90
20839;DHT22;10580;51.092;6.828;2022-12-13T00:16:06;-2.00;99.90
20839;DHT22;10580;51.092;6.828;2022-12-13T00:18:32;-2.00;99.90
20839;DHT22;10580;51.092;6.828;2022-12-13T00:20:58;-2.00;99.90
20839;DHT22;10580;51.092;6.828;2022-12-13T00:23:24;-2.00;99.90
20839;DHT22;10580;51.092;6.828;2022-12-13T00:25:50;-2.00;99.90
20839;DHT22;10580;51.092;6.828;2022-12-13T00:28:15;-2.00;99.90
20839;DHT22;10580;51.092;6.828;2022-12-13T00:30:41;-2.00;99.90
20839;DHT22;10580;51.092;6.828;2022-12-13T00:33:07;-2.00;99.90
20839;DHT22;10580;51.092;6.828;2022-12-13T00:35:38;-2.10;99.90
20839;DHT22;10580;51.092;6.828;2022-12-13T00:38:04;-2.10;99.90
20839;DHT22;10580;51.092;6.828;2022-12-13T00:40:29;-2.10;99.90
20839;DHT22;10580;51.092;6.828;2022-12-13T00:42:55;-2.10;99.90
20839;DHT22;10580;51.092;6.828;2022-12-13T00:45:20;-2.20;99.90
20839;DHT22;10580;51.092;6.828;2022-12-13T00:47:46;-2.20;99.90
20839;DHT22;10580;51.092;6.828;2022-12-13T00:50:12;-2.20;99.90
20839;DHT22;10580;51.092;6.828;2022-12-13T00:52:38;-2.20;99.90
20839;DHT22;10580;51.092;6.828;2022-12-13T00:55:03;-2.20;99.90
20839;DHT22;10580;51.092;6.828;2022-12-13T00:57:29;-2.20;99.90
20839;DHT22;10580;51.092;6.828;2022-12-13T00:59:55;-2.30;99.90
20839;DHT22;10580;51.092;6.828;2022-12-13T01:02:20;-2.20;99.90
20839;DHT22;10580;51.092;6.828;2022-12-13T01:04:48;-2.20;99.90
20839;DHT22;10580;51.092;6.828;2022-12-13T01:07:14;-2.20;99.90
20839;DHT22;10580;51.092;6.828;2022-12-13T01:09:40;-2.20;99.90
20839;DHT22;10580;51.092;6.828;2022-12-13T01:12:07;-2.20;99.90
20839;DHT22;10580;51.092;6.828;2022-12-13T01:14:37;-2.20;99.90
20839;DHT22;10580;51.092;6.828;2022-12-13T01:17:04;-2.20;99.90
20839;DHT22;10580;51.092;6.828;2022-12-13T01:19:30;-2.20;99.90
20839;DHT22;10580;51.092;6.828;2022-12-13T01:21:57;-2.20;99.90
20839;DHT22;10580;51.092;6.828;2022-12-13T01:24:23;-2.20;99.90
20839;DHT22;10580;51.092;6.828;2022-12-13T01:26:51;-2.20;99.90
20839;DHT22;10580;51.092;6.828;2022-12-13T01:29:18;-2.20;99.90
20839;DHT22;10580;51.092;6.828;2022-12-13T01:31:44;-2.20;99.90
20839;DHT22;10580;51.092;6.828;2022-12-13T01:34:15;-2.20;99.90
20839;DHT22;10580;51.092;6.828;2022-12-13T01:36:42;-2.30;99.90
20839;DHT22;10580;51.092;6.828;2022-12-13T01:39:09;-2.20;99.90
20839;DHT22;10580;51.092;6.828;2022-12-13T01:41:35;-2.30;99.90
20839;DHT22;10580;51.092;6.828;2022-12-13T01:44:04;-2.20;99.90
20839;DHT22;10580;51.092;6.828;2022-12-13T01:46:32;-2.20;99.90
20839;DHT22;10580;51.092;6.828;2022-12-13T01:49:07;-2.20;99.90
20839;DHT22;10580;51.092;6.828;2022-12-13T01:51:52;-2.20;99.90
20839;DHT22;10580;51.092;6.828;2022-12-13T01:54:23;-2.20;99.90
20839;DHT22;10580;51.092;6.828;2022-12-13T01:56:54;-2.20;99.90
20839;DHT22;10580;51.092;6.828;2022-12-13T01:59:21;-2.30;99.90
20839;DHT22;10580;51.092;6.828;2022-12-13T02:01:48;-2.30;99.90
20839;DHT22;10580;51.092;6.828;2022-12-13T02:04:17;-2.30;99.90
20839;DHT22;10580;51.092;6.828;2022-12-13T02:06:45;-2.30;99.90
20839;DHT22;10580;51.092;6.828;2022-12-13T02:09:11;-2.30;99.90
20839;DHT22;10580;51.092;6.828;2022-12-13T02:11:40;-2.30;99.90
20839;DHT22;10580;51.092;6.828;2022-12-13T02:14:06;-2.40;99.90
20839;DHT22;10580;51.092;6.828;2022-12-13T02:22:31;-2.40;99.90
20839;DHT22;10580;51.092;6.828;2022-12-13T02:25:16;-2.40;99.90
20839;DHT22;10580;51.092;6.828;2022-12-13T02:30:37;-2.50;99.90
20839;DHT22;10580;51.092;6.828;2022-12-13T02:36:07;-2.50;99.90
20839;DHT22;10580;51.092;6.828;2022-12-13T02:39:00;-2.50;99.90
20839;DHT22;10580;51.092;6.828;2022-12-13T02:41:44;-2.50;99.90
20839;DHT22;10580;51.092;6.828;2022-12-13T02:44:21;-2.50;99.90
20839;DHT22;10580;51.092;6.828;2022-12-13T02:46:56;-2.60;99.90
20839;DHT22;10580;51.092;6.828;2022-12-13T02:49:25;-2.60;99.90
20839;DHT22;10580;51.092;6.828;2022-12-13T02:51:53;-2.60;99.90
20839;DHT22;10580;51.092;6.828;2022-12-13T02:54:18;-2.70;99.90
20839;DHT22;10580;51.092;6.828;2022-12-13T02:56:57;-2.70;99.90
20839;DHT22;10580;51.092;6.828;2022-12-13T02:59:27;-2.70;99.90
20839;DHT22;10580;51.092;6.828;2022-12-13T03:05:10;-2.70;99.90
20839;DHT22;10580;51.092;6.828;2022-12-13T03:11:04;-2.70;99.90
20839;DHT22;10580;51.092;6.828;2022-12-13T03:16:28;-2.80;99.90
20839;DHT22;10580;51.092;6.828;2022-12-13T03:18:59;-2.80;99.90
20839;DHT22;10580;51.092;6.828;2022-12-13T03:21:26;-2.80;99.90
20839;DHT22;10580;51.092;6.828;2022-12-13T03:23:51;-2.90;99.90
20839;DHT22;10580;51.092;6.828;2022-12-13T03:26:20;-2.90;99.90
20839;DHT22;10580;51.092;6.828;2022-12-13T03:28:47;-2.90;99.90
20839;DHT22;10580;51.092;6.828;2022-12-13T03:31:13;-2.90;99.90
20839;DHT22;10580;51.092;6.828;2022-12-13T03:33:38;-2.90;99.90
20839;DHT22;10580;51.092;6.828;2022-12-13T03:36:04;-3.00;99.90
20839;DHT22;10580;51.092;6.828;2022-12-13T03:38:30;-3.00;99.90
20839;DHT22;10580;51.092;6.828;2022-12-13T03:40:59;-3.00;99.90
20839;DHT22;10580;51.092;6.828;2022-12-13T03:43:27;-3.00;99.90
20839;DHT22;10580;51.092;6.828;2022-12-13T03:45:53;-3.00;99.90
20839;DHT22;10580;51.092;6.828;2022-12-13T03:48:19;-3.00;99.90
20839;DHT22;10580;51.092;6.828;2022-12-13T03:50:45;-3.00;99.90
20839;DHT22;10580;51.092;6.828;2022-12-13T03:53:11;-3.00;99.90
20839;DHT22;10580;51.092;6.828;2022-12-13T03:55:37;-3.10;99.90
20839;DHT22;10580;51.092;6.828;2022-12-13T03:58:02;-3.10;99.90
20839;DHT22;10580;51.092;6.828;2022-12-13T04:00:28;-3.10;99.90
20839;DHT22;10580;51.092;6.828;2022-12-13T04:02:53;-3.10;99.90
20839;DHT22;10580;51.092;6.828;2022-12-13T04:05:19;-3.20;99.90
20839;DHT22;10580;51.092;6.828;2022-12-13T04:07:45;-3.20;99.90
20839;DHT22;10580;51.092;6.828;2022-12-13T04:10:10;-3.20;99.90
20839;DHT22;10580;51.092;6.828;2022-12-13T04:12:36;-3.20;99.90
20839;DHT22;10580;51.092;6.828;2022-12-13T04:15:20;-3.20;99.90
20839;DHT22;10580;51.092;6.828;2022-12-13T04:17:45;-3.20;99.90
20839;DHT22;10580;51.092;6.828;2022-12-13T04:20:11;-3.20;99.90
20839;DHT22;10580;51.092;6.828;2022-12-13T04:22:37;-3.30;99.90
20839;DHT22;10580;51.092;6.828;2022-12-13T04:25:03;-3.30;99.90
20839;DHT22;10580;51.092;6.828;2022-12-13T04:27:29;-3.30;99.90
20839;DHT22;10580;51.092;6.828;2022-12-13T04:29:54;-3.30;99.90
20839;DHT22;10580;51.092;6.828;2022-12-13T04:32:20;-3.30;99.90
20839;DHT22;10580;51.092;6.828;2022-12-13T04:34:45;-3.30;99.90
20839;DHT22;10580;51.092;6.828;2022-12-13T04:37:11;-3.30;99.90
20839;DHT22;10580;51.092;6.828;2022-12-13T04:39:36;-3.30;99.90
20839;DHT22;10580;51.092;6.828;2022-12-13T04:42:02;-3.30;99.90
20839;DHT22;10580;51.092;6.828;2022-12-13T04:44:28;-3.30;99.90
20839;DHT22;10580;51.092;6.828;2022-12-13T04:46:54;-3.30;99.90
20839;DHT22;10580;51.092;6.828;2022-12-13T04:49:20;-3.30;99.90
20839;DHT22;10580;51.092;6.828;2022-12-13T04:51:45;-3.30;99.90
20839;DHT22;10580;51.092;6.828;2022-12-13T04:54:11;-3.30;99.90
20839;DHT22;10580;51.092;6.828;2022-12-13T04:56:37;-3.30;99.90
20839;DHT22;10580;51.092;6.828;2022-12-13T04:59:03;-3.30;99.90
20839;DHT22;10580;51.092;6.828;2022-12-13T05:01:28;-3.30;99.90
20839;DHT22;10580;51.092;6.828;2022-12-13T05:03:54;-3.30;99.90
20839;DHT22;10580;51.092;6.828;2022-12-13T05:06:19;-3.30;99.90
20839;DHT22;10580;51.092;6.828;2022-12-13T05:08:45;-3.30;99.90
20839;DHT22;10580;51.092;6.828;2022-12-13T05:11:11;-3.40;99.90
20839;DHT22;10580;51.092;6.828;2022-12-13T05:13:37;-3.40;99.90
20839;DHT22;10580;51.092;6.828;2022-12-13T05:16:05;-3.40;99.90
20839;DHT22;10580;51.092;6.828;2022-12-13T05:18:31;-3.50;99.90
20839;DHT22;10580;51.092;6.828;2022-12-13T05:21:04;-3.50;99.90
20839;DHT22;10580;51.092;6.828;2022-12-13T05:23:31;-3.50;99.90
20839;DHT22;10580;51.092;6.828;2022-12-13T05:25:57;-3.50;99.90
20839;DHT22;10580;51.092;6.828;2022-12-13T05:28:23;-3.60;99.90
20839;DHT22;10580;51.092;6.828;2022-12-13T05:30:51;-3.60;99.90
20839;DHT22;10580;51.092;6.828;2022-12-13T05:33:17;-3.60;99.90
20839;DHT22;10580;51.092;6.828;2022-12-13T05:35:43;-3.60;99.90
20839;DHT22;10580;51.092;6.828;2022-12-13T05:38:08;-3.60;99.90
20839;DHT22;10580;51.092;6.828;2022-12-13T05:40:34;-3.60;99.90
20839;DHT22;10580;51.092;6.828;2022-12-13T05:43:00;-3.60;99.90
20839;DHT22;10580;51.092;6.828;2022-12-13T05:45:25;-3.60;99.90
20839;DHT22;10580;51.092;6.828;2022-12-13T05:47:51;-3.70;99.90
20839;DHT22;10580;51.092;6.828;2022-12-13T05:50:17;-3.70;99.90
20839;DHT22;10580;51.092;6.828;2022-12-13T05:52:42;-3.70;99.90
20839;DHT22;10580;51.092;6.828;2022-12-13T05:55:09;-3.70;99.90
20839;DHT22;10580;51.092;6.828;2022-12-13T05:57:35;-3.80;99.90
20839;DHT22;10580;51.092;6.828;2022-12-13T06:00:02;-3.80;99.90
20839;DHT22;10580;51.092;6.828;2022-12-13T06:02:28;-3.80;99.90
20839;DHT22;10580;51.092;6.828;2022-12-13T06:04:53;-3.90;99.90
20839;DHT22;10580;51.092;6.828;2022-12-13T06:07:19;-3.90;99.90
20839;DHT22;10580;51.092;6.828;2022-12-13T06:09:45;-3.90;99.90
20839;DHT22;10580;51.092;6.828;2022-12-13T06:12:10;-3.90;99.90
20839;DHT22;10580;51.092;6.828;2022-12-13T06:14:36;-4.00;99.90
20839;DHT22;10580;51.092;6.828;2022-12-13T06:17:02;-4.00;99.90
20839;DHT22;10580;51.092;6.828;2022-12-13T06:19:27;-4.00;99.90
20839;DHT22;10580;51.092;6.828;2022-12-13T06:21:54;-4.00;99.90
20839;DHT22;10580;51.092;6.828;2022-12-13T06:24:21;-4.00;99.90
20839;DHT22;10580;51.092;6.828;2022-12-13T06:26:48;-4.00;99.90
20839;DHT22;10580;51.092;6.828;2022-12-13T06:29:15;-4.00;99.90
20839;DHT22;10580;51.092;6.828;2022-12-13T06:31:41;-4.00;99.90
20839;DHT22;10580;51.092;6.828;2022-12-13T06:34:06;-4.00;99.90
20839;DHT22;10580;51.092;6.828;2022-12-13T06:36:32;-4.10;99.90
20839;DHT22;10580;51.092;6.828;2022-12-13T06:39:04;-4.10;99.90
20839;DHT22;10580;51.092;6.828;2022-12-13T06:41:30;-4.10;99.90
20839;DHT22;10580;51.092;6.828;2022-12-13T06:43:56;-4.10;99.90
20839;DHT22;10580;51.092;6.828;2022-12-13T06:46:22;-4.10;99.90
20839;DHT22;10580;51.092;6.828;2022-12-13T06:48:48;-4.10;99.90
20839;DHT22;10580;51.092;6.828;2022-12-13T06:51:14;-4.10;99.90
20839;DHT22;10580;51.092;6.828;2022-12-13T06:53:40;-4.10;99.90
20839;DHT22;10580;51.092;6.828;2022-12-13T06:56:12;-4.10;99.90
20839;DHT22;10580;51.092;6.828;2022-12-13T06:58:39;-4.10;99.90
20839;DHT22;10580;51.092;6.828;2022-12-13T07:01:06;-4.10;99.90
20839;DHT22;10580;51.092;6.828;2022-12-13T07:03:32;-4.10;99.90
20839;DHT22;10580;51.092;6.828;2022-12-13T07:05:59;-4.10;99.90
20839;DHT22;10580;51.092;6.828;2022-12-13T07:08:24;-4.10;99.90
20839;DHT22;10580;51.092;6.828;2022-12-13T07:10:51;-4.10;99.90
20839;DHT22;10580;51.092;6.828;2022-12-13T07:13:18;-4.10;99.90
20839;DHT22;10580;51.092;6.828;2022-12-13T07:15:45;-4.10;99.90
20839;DHT22;10580;51.092;6.828;2022-12-13T07:18:11;-4.20;99.90
20839;DHT22;10580;51.092;6.828;2022-12-13T07:20:38;-4.10;99.90
20839;DHT22;10580;51.092;6.828;2022-12-13T07:23:05;-4.10;99.90
20839;DHT22;10580;51.092;6.828;2022-12-13T07:25:30;-4.20;99.90
20839;DHT22;10580;51.092;6.828;2022-12-13T07:27:58;-4.10;99.90
20839;DHT22;10580;51.092;6.828;2022-12-13T07:30:24;-4.20;99.90
20839;DHT22;10580;51.092;6.828;2022-12-13T07:32:49;-4.20;99.90
20839;DHT22;10580;51.092;6.828;2022-12-13T07:35:15;-4.10;99.90
20839;DHT22;10580;51.092;6.828;2022-12-13T07:37:40;-4.10;99.90
20839;DHT22;10580;51.092;6.828;2022-12-13T07:40:06;-4.10;99.90
20839;DHT22;10580;51.092;6.828;2022-12-13T07:42:32;-4.10;99.90
20839;DHT22;10580;51.092;6.828;2022-12-13T07:44:58;-4.10;99.90
20839;DHT22;10580;51.092;6.828;2022-12-13T07:47:28;-4.10;99.90
20839;DHT22;10580;51.092;6.828;2022-12-13T07:49:54;-4.10;99.90
20839;DHT22;10580;51.092;6.828;2022-12-13T07:52:20;-4.10;99.90
20839;DHT22;10580;51.092;6.828;2022-12-13T07:54:45;-4.10;99.90
20839;DHT22;10580;51.092;6.828;2022-12-13T07:57:11;-4.10;99.90
20839;DHT22;10580;51.092;6.828;2022-12-13T07:59:37;-4.10;99.90
20839;DHT22;10580;51.092;6.828;2022-12-13T08:02:05;-4.10;99.90
20839;DHT22;10580;51.092;6.828;2022-12-13T08:04:30;-4.10;99.90
20839;DHT22;10580;51.092;6.828;2022-12-13T08:06:56;-4.10;99.90
20839;DHT22;10580;51.092;6.828;2022-12-13T08:09:21;-4.10;99.90
20839;DHT22;10580;51.092;6.828;2022-12-13T08:11:47;-4.10;99.90
20839;DHT22;10580;51.092;6.828;2022-12-13T08:14:14;-4.10;99.90
20839;DHT22;10580;51.092;6.828;2022-12-13T08:16:40;-4.10;99.90
20839;DHT22;10580;51.092;6.828;2022-12-13T08:19:05;-4.00;99.90
20839;DHT22;10580;51.092;6.828;2022-12-13T08:21:35;-4.00;99.90
20839;DHT22;10580;51.092;6.828;2022-12-13T08:24:01;-3.90;99.90
20839;DHT22;10580;51.092;6.828;2022-12-13T08:26:27;-3.80;99.90
20839;DHT22;10580;51.092;6.828;2022-12-13T08:28:52;-3.80;99.90
20839;DHT22;10580;51.092;6.828;2022-12-13T08:31:18;-3.70;99.90
20839;DHT22;10580;51.092;6.828;2022-12-13T08:33:43;-3.60;99.90
20839;DHT22;10580;51.092;6.828;2022-12-13T08:36:14;-3.40;99.90
20839;DHT22;10580;51.092;6.828;2022-12-13T08:38:43;-3.10;99.90
20839;DHT22;10580;51.092;6.828;2022-12-13T08:41:10;-2.90;99.90
20839;DHT22;10580;51.092;6.828;2022-12-13T08:43:36;-2.60;99.90
20839;DHT22;10580;51.092;6.828;2022-12-13T08:46:03;-2.30;99.90
20839;DHT22;10580;51.092;6.828;2022-12-13T08:48:29;-2.00;99.90
20839;DHT22;10580;51.092;6.828;2022-12-13T08:51:02;-1.60;99.90
20839;DHT22;10580;51.092;6.828;2022-12-13T08:53:29;-1.20;99.90
20839;DHT22;10580;51.092;6.828;2022-12-13T08:56:02;-1.10;77.60
20839;DHT22;10580;51.092;6.828;2022-12-13T08:58:28;-0.90;67.90
20839;DHT22;10580;51.092;6.828;2022-12-13T09:00:54;-0.70;1.00
20839;DHT22;10580;51.092;6.828;2022-12-13T09:03:20;-0.70;1.00
20839;DHT22;10580;51.092;6.828;2022-12-13T09:05:45;-0.80;1.00
20839;DHT22;10580;51.092;6.828;2022-12-13T09:08:11;-0.80;1.00
20839;DHT22;10580;51.092;6.828;2022-12-13T09:10:36;-0.70;1.00
20839;DHT22;10580;51.092;6.828;2022-12-13T09:13:02;-0.60;1.00
20839;DHT22;10580;51.092;6.828;2022-12-13T09:15:30;-0.60;1.00
20839;DHT22;10580;51.092;6.828;2022-12-13T09:17:56;-0.50;1.00
20839;DHT22;10580;51.092;6.828;2022-12-13T09:20:22;-0.50;1.00
20839;DHT22;10580;51.092;6.828;2022-12-13T09:22:48;-0.50;1.00
20839;DHT22;10580;51.092;6.828;2022-12-13T09:25:13;-0.40;1.00
20839;DHT22;10580;51.092;6.828;2022-12-13T09:27:39;-0.20;1.00
20839;DHT22;10580;51.092;6.828;2022-12-13T09:30:07;0.40;1.00
20839;DHT22;10580;51.092;6.828;2022-12-13T09:32:36;0.80;99.90
20839;DHT22;10580;51.092;6.828;2022-12-13T09:35:01;1.00;99.90
20839;DHT22;10580;51.092;6.828;2022-12-13T09:37:28;0.90;1.00
20839;DHT22;10580;51.092;6.828;2022-12-13T09:39:54;0.80;1.00
20839;DHT22;10580;51.092;6.828;2022-12-13T09:42:25;0.50;1.00
20839;DHT22;10580;51.092;6.828;2022-12-13T09:45:00;0.40;99.90
20839;DHT22;10580;51.092;6.828;2022-12-13T09:47:33;0.40;1.00
20839;DHT22;10580;51.092;6.828;2022-12-13T09:50:04;0.30;1.00
20839;DHT22;10580;51.092;6.828;2022-12-13T09:52:35;0.10;99.90
20839;DHT22;10580;51.092;6.828;2022-12-13T09:57:45;-0.10;99.90
20839;DHT22;10580;51.092;6.828;2022-12-13T10:00:14;0.00;1.00
20839;DHT22;10580;51.092;6.828;2022-12-13T10:02:46;-0.20;1.00
20839;DHT22;10580;51.092;6.828;2022-12-13T10:05:27;0.10;1.00
20839;DHT22;10580;51.092;6.828;2022-12-13T10:07:56;0.90;1.00
20839;DHT22;10580;51.092;6.828;2022-12-13T10:10:23;1.20;1.00
20839;DHT22;10580;51.092;6.828;2022-12-13T10:13:12;1.30;1.00
20839;DHT22;10580;51.092;6.828;2022-12-13T10:15:42;1.40;1.00
20839;DHT22;10580;51.092;6.828;2022-12-13T10:18:13;1.20;99.90
20839;DHT22;10580;51.092;6.828;2022-12-13T10:20:40;1.10;1.00
20839;DHT22;10580;51.092;6.828;2022-12-13T10:23:06;1.30;1.00
20839;DHT22;10580;51.092;6.828;2022-12-13T10:25:50;1.30;99.90
20839;DHT22;10580;51.092;6.828;2022-12-13T10:28:24;1.20;99.90
20839;DHT22;10580;51.092;6.828;2022-12-13T10:30:51;1.00;1.00
20839;DHT22;10580;51.092;6.828;2022-12-13T10:33:26;0.70;1.00
20839;DHT22;10580;51.092;6.828;2022-12-13T10:38:37;0.10;99.90
20839;DHT22;10580;51.092;6.828;2022-12-13T10:41:24;0.00;1.00
20839;DHT22;10580;51.092;6.828;2022-12-13T10:47:20;0.00;1.00
20839;DHT22;10580;51.092;6.828;2022-12-13T10:49:31;0.00;1.00
20839;DHT22;10580;51.092;6.828;2022-12-13T10:51:59;-0.20;1.00
20839;DHT22;10580;51.092;6.828;2022-12-13T10:54:30;-0.30;1.00
20839;DHT22;10580;51.092;6.828;2022-12-13T10:56:58;-0.30;1.00
20839;DHT22;10580;51.092;6.828;2022-12-13T10:59:29;-0.30;1.00
20839;DHT22;10580;51.092;6.828;2022-12-13T11:01:55;-0.30;1.00
20839;DHT22;10580;51.092;6.828;2022-12-13T11:04:34;-0.20;1.00
20839;DHT22;10580;51.092;6.828;2022-12-13T11:07:24;-0.30;1.00
20839;DHT22;10580;51.092;6.828;2022-12-13T11:09:47;-0.30;1.00
20839;DHT22;10580;51.092;6.828;2022-12-13T11:12:17;-0.30;1.00
20839;DHT22;10580;51.092;6.828;2022-12-13T11:15:02;-0.30;1.00
20839;DHT22;10580;51.092;6.828;2022-12-13T11:17:32;-0.30;1.00
20839;DHT22;10580;51.092;6.828;2022-12-13T11:20:04;-0.30;1.00
20839;DHT22;10580;51.092;6.828;2022-12-13T11:22:35;-0.40;1.00
20839;DHT22;10580;51.092;6.828;2022-12-13T11:25:53;-0.50;1.00
20839;DHT22;10580;51.092;6.828;2022-12-13T11:28:20;-0.60;1.00
20839;DHT22;10580;51.092;6.828;2022-12-13T11:37:15;-0.40;1.00
20839;DHT22;10580;51.092;6.828;2022-12-13T11:39:37;-0.30;1.00
20839;DHT22;10580;51.092;6.828;2022-12-13T11:47:44;0.10;1.00
20839;DHT22;10580;51.092;6.828;2022-12-13T11:50:23;0.20;1.00
20839;DHT22;10580;51.092;6.828;2022-12-13T11:52:55;0.40;1.00
20839;DHT22;10580;51.092;6.828;2022-12-13T11:55:51;1.10;99.90
20839;DHT22;10580;51.092;6.828;2022-12-13T11:58:32;2.40;24.90
20839;DHT22;10580;51.092;6.828;2022-12-13T12:01:07;2.70;1.00
20839;DHT22;10580;51.092;6.828;2022-12-13T12:04:05;2.50;1.00
20839;DHT22;10580;51.092;6.828;2022-12-13T12:06:45;1.90;1.00
20839;DHT22;10580;51.092;6.828;2022-12-13T12:09:15;2.00;99.90
20839;DHT22;10580;51.092;6.828;2022-12-13T12:11:57;2.20;1.00
20839;DHT22;10580;51.092;6.828;2022-12-13T12:17:12;2.70;1.00
20839;DHT22;10580;51.092;6.828;2022-12-13T12:19:40;2.60;99.90
20839;DHT22;10580;51.092;6.828;2022-12-13T12:28:21;1.70;99.90
20839;DHT22;10580;51.092;6.828;2022-12-13T12:30:59;1.60;1.00
20839;DHT22;10580;51.092;6.828;2022-12-13T12:33:47;1.40;1.00
20839;DHT22;10580;51.092;6.828;2022-12-13T12:39:33;1.20;1.00
20839;DHT22;10580;51.092;6.828;2022-12-13T12:42:34;1.10;1.00
20839;DHT22;10580;51.092;6.828;2022-12-13T12:47:58;0.90;1.00
20839;DHT22;10580;51.092;6.828;2022-12-13T12:50:40;0.80;1.00
20839;DHT22;10580;51.092;6.828;2022-12-13T12:59:17;0.80;92.70
20839;DHT22;10580;51.092;6.828;2022-12-13T13:01:56;0.70;1.00
20839;DHT22;10580;51.092;6.828;2022-12-13T13:04:30;0.70;82.10
20839;DHT22;10580;51.092;6.828;2022-12-13T13:07:08;0.80;1.00
20839;DHT22;10580;51.092;6.828;2022-12-13T13:09:36;0.80;7.60
20839;DHT22;10580;51.092;6.828;2022-12-13T13:12:04;0.90;1.00
20839;DHT22;10580;51.092;6.828;2022-12-13T13:14:38;0.90;99.90
20839;DHT22;10580;51.092;6.828;2022-12-13T13:22:29;0.90;1.00
20839;DHT22;10580;51.092;6.828;2022-12-13T13:27:30;0.90;99.90
20839;DHT22;10580;51.092;6.828;2022-12-13T13:30:18;0.90;1.00
20839;DHT22;10580;51.092;6.828;2022-12-13T13:32:45;0.90;1.00
20839;DHT22;10580;51.092;6.828;2022-12-13T13:37:56;0.80;1.00
20839;DHT22;10580;51.092;6.828;2022-12-13T13:40:36;0.90;1.00
20839;DHT22;10580;51.092;6.828;2022-12-13T14:00:19;1.00;99.90
20839;DHT22;10580;51.092;6.828;2022-12-13T14:19:23;1.00;1.00
20839;DHT22;10580;51.092;6.828;2022-12-13T14:27:18;0.90;99.90
20839;DHT22;10580;51.092;6.828;2022-12-13T14:29:46;0.80;99.90
20839;DHT22;10580;51.092;6.828;2022-12-13T14:32:24;0.80;99.90
20839;DHT22;10580;51.092;6.828;2022-12-13T14:34:50;0.80;1.00
20839;DHT22;10580;51.092;6.828;2022-12-13T14:37:33;0.80;99.90
20839;DHT22;10580;51.092;6.828;2022-12-13T14:40:00;0.80;1.00
20839;DHT22;10580;51.092;6.828;2022-12-13T14:42:28;0.80;1.00
20839;DHT22;10580;51.092;6.828;2022-12-13T14:44:55;0.80;1.00
20839;DHT22;10580;51.092;6.828;2022-12-13T14:47:39;0.80;1.00
20839;DHT22;10580;51.092;6.828;2022-12-13T14:50:05;0.70;1.00
20839;DHT22;10580;51.092;6.828;2022-12-13T14:52:37;0.70;1.00
20839;DHT22;10580;51.092;6.828;2022-12-13T14:55:04;0.60;1.00
20839;DHT22;10580;51.092;6.828;2022-12-13T14:57:32;0.60;1.00
20839;DHT22;10580;51.092;6.828;2022-12-13T15:00:20;0.60;1.00
20839;DHT22;10580;51.092;6.828;2022-12-13T15:02:50;0.60;1.00
20839;DHT22;10580;51.092;6.828;2022-12-13T15:05:27;0.60;1.00
20839;DHT22;10580;51.092;6.828;2022-12-13T15:07:53;0.50;1.00
20839;DHT22;10580;51.092;6.828;2022-12-13T15:10:41;0.50;1.00
20839;DHT22;10580;51.092;6.828;2022-12-13T15:13:05;0.40;1.00
20839;DHT22;10580;51.092;6.828;2022-12-13T15:15:35;0.30;1.00
20839;DHT22;10580;51.092;6.828;2022-12-13T15:18:18;0.30;19.10
20839;DHT22;10580;51.092;6.828;2022-12-13T15:20:46;0.20;99.90
20839;DHT22;10580;51.092;6.828;2022-12-13T15:23:22;0.20;99.90
20839;DHT22;10580;51.092;6.828;2022-12-13T15:26:01;0.10;99.90
20839;DHT22;10580;51.092;6.828;2022-12-13T15:28:31;0.10;99.90
20839;DHT22;10580;51.092;6.828;2022-12-13T15:30:59;0.10;99.90
20839;DHT22;10580;51.092;6.828;2022-12-13T15:33:27;0.00;1.00
20839;DHT22;10580;51.092;6.828;2022-12-13T15:36:20;0.00;99.90
20839;DHT22;10580;51.092;6.828;2022-12-13T15:41:33;0.00;99.90
20839;DHT22;10580;51.092;6.828;2022-12-13T15:44:20;0.00;99.90
20839;DHT22;10580;51.092;6.828;2022-12-13T15:46:49;0.00;99.90
20839;DHT22;10580;51.092;6.828;2022-12-13T15:49:36;-0.10;99.90
20839;DHT22;10580;51.092;6.828;2022-12-13T15:54:38;-0.10;99.90
20839;DHT22;10580;51.092;6.828;2022-12-13T15:57:11;-0.10;1.00
20839;DHT22;10580;51.092;6.828;2022-12-13T15:59:41;-0.10;1.00
20839;DHT22;10580;51.092;6.828;2022-12-13T16:02:16;-0.10;1.00
20839;DHT22;10580;51.092;6.828;2022-12-13T16:04:42;-0.10;1.00
20839;DHT22;10580;51.092;6.828;2022-12-13T16:07:28;-0.10;1.00
20839;DHT22;10580;51.092;6.828;2022-12-13T16:09:57;-0.10;1.00
20839;DHT22;10580;51.092;6.828;2022-12-13T16:12:41;-0.10;1.00
20839;DHT22;10580;51.092;6.828;2022-12-13T16:15:25;-0.20;1.00
20839;DHT22;10580;51.092;6.828;2022-12-13T16:17:53;-0.20;1.00
20839;DHT22;10580;51.092;6.828;2022-12-13T16:20:21;-0.20;1.00
20839;DHT22;10580;51.092;6.828;2022-12-13T16:22:47;-0.20;1.00
20839;DHT22;10580;51.092;6.828;2022-12-13T16:25:16;-0.20;1.00
20839;DHT22;10580;51.092;6.828;2022-12-13T16:27:42;-0.30;1.00
20839;DHT22;10580;51.092;6.828;2022-12-13T16:30:25;-0.30;1.00
20839;DHT22;10580;51.092;6.828;2022-12-13T16:32:52;-0.30;1.00
20839;DHT22;10580;51.092;6.828;2022-12-13T16:35:18;-0.30;1.00
20839;DHT22;10580;51.092;6.828;2022-12-13T16:37:44;-0.30;1.00
20839;DHT22;10580;51.092;6.828;2022-12-13T16:40:30;-0.30;1.00
20839;DHT22;10580;51.092;6.828;2022-12-13T16:42:59;-0.30;1.00
20839;DHT22;10580;51.092;6.828;2022-12-13T16:45:34;-0.30;1.00
20839;DHT22;10580;51.092;6.828;2022-12-13T16:48:01;-0.30;1.00
20839;DHT22;10580;51.092;6.828;2022-12-13T16:50:29;-0.30;1.00
20839;DHT22;10580;51.092;6.828;2022-12-13T16:52:57;-0.30;1.00
20839;DHT22;10580;51.092;6.828;2022-12-13T16:55:23;-0.30;1.00
20839;DHT22;10580;51.092;6.828;2022-12-13T16:58:00;-0.30;1.00
20839;DHT22;10580;51.092;6.828;2022-12-13T17:00:27;-0.30;1.00
20839;DHT22;10580;51.092;6.828;2022-12-13T17:02:54;-0.30;1.00
20839;DHT22;10580;51.092;6.828;2022-12-13T17:05:23;-0.40;1.00
20839;DHT22;10580;51.092;6.828;2022-12-13T17:07:49;-0.40;1.00
20839;DHT22;10580;51.092;6.828;2022-12-13T17:10:20;-0.40;1.00
20839;DHT22;10580;51.092;6.828;2022-12-13T17:12:46;-0.30;1.00
20839;DHT22;10580;51.092;6.828;2022-12-13T17:15:15;-0.30;1.00
20839;DHT22;10580;51.092;6.828;2022-12-13T17:17:44;-0.30;1.00
20839;DHT22;10580;51.092;6.828;2022-12-13T17:20:13;-0.30;1.00
20839;DHT22;10580;51.092;6.828;2022-12-13T17:22:40;-0.30;1.00
20839;DHT22;10580;51.092;6.828;2022-12-13T17:25:06;-0.40;1.00
20839;DHT22;10580;51.092;6.828;2022-12-13T17:27:34;-0.40;1.00
20839;DHT22;10580;51.092;6.828;2022-12-13T17:30:00;-0.40;1.00
20839;DHT22;10580;51.092;6.828;2022-12-13T17:32:28;-0.40;1.00
20839;DHT22;10580;51.092;6.828;2022-12-13T17:34:54;-0.50;1.00
20839;DHT22;10580;51.092;6.828;2022-12-13T17:37:20;-0.50;1.00
20839;DHT22;10580;51.092;6.828;2022-12-13T17:39:46;-0.50;1.00
20839;DHT22;10580;51.092;6.828;2022-12-13T17:42:12;-0.50;1.00
20839;DHT22;10580;51.092;6.828;2022-12-13T17:44:40;-0.50;1.00
20839;DHT22;10580;51.092;6.828;2022-12-13T17:47:08;-0.50;1.00
20839;DHT22;10580;51.092;6.828;2022-12-13T17:49:49;-0.50;1.00
20839;DHT22;10580;51.092;6.828;2022-12-13T17:52:14;-0.60;1.00